Airfield :
LOGIN :

Register | Disclaimer

   EN    FR    IT 

 










Legend :    VFR   Marginal VFR   IFR   Intensive IFR   Very Intensive IFR
Visi :
Ceiling :
>= 8 km
>= 3000ft
5 to 8 km
1000 to 3000 ft
1500m to 5 km
500 to 1000 ft
800 to 1500m
200 to 500 ft
< 800m
< 200 ft
Symbols :   Thunderstorms  Fog  Heavy snow  Heavy precipitations  Wind > 20 kt
SIGMETs :     Misc.  Thunderstorms  Icing  Turbulence  Mountain Waves  Volcanic Ashes







- Airport Elevation : 184 ft
- IATA code : BRU


EBBR - Bruxelles

CURRENT METAR :
  • 172350Z 25005KT CAVOK 14/11 Q1022 NOSIG

EXPIRED METARs :
  • 172320Z 23003KT CAVOK 13/11 Q1022 NOSIG
  • 172250Z 27002KT CAVOK 13/11 Q1022 NOSIG
  • 172220Z VRB02KT CAVOK 14/11 Q1022 NOSIG
  • 172150Z 29003KT CAVOK 16/09 Q1022 NOSIG
  • 172120Z 31002KT CAVOK 16/09 Q1022 NOSIG

TAF TAF EBBR
Valid from the 18 at 00:00 until the 19 at 06:00 UTC


172300Z 1800/1906 23004KT CAVOK
No reported NOTAMs for that airfield.



MET'MAP, your aeronautical weather chart ! - Copyright ORBIFLY December 2007 - Disclaimer

ORBIFLY MET'MAP TEAM :

Programming & Development : Alexandra Zaïnal
Concept & Development : Baudouin d'Aumeries
Co-Development & Prog : Marc-Olivier Méhu
Technical & hardware support : Manuel Goepfert

Contact : metmap@orbifly.com




SOURCES & CREDITS :

   NOAA